createdAt,value
2018-09-10T00:01:13.156Z,9.85
2018-09-10T00:03:42.055Z,10.88
2018-09-10T00:06:10.964Z,10.00
2018-09-10T00:08:39.908Z,9.40
2018-09-10T00:11:08.856Z,8.70
2018-09-10T00:13:37.792Z,10.35
2018-09-10T00:16:06.932Z,9.70
2018-09-10T00:18:35.935Z,10.85
2018-09-10T00:21:04.859Z,11.95
2018-09-10T00:23:33.813Z,11.20
2018-09-10T00:26:02.769Z,10.05
2018-09-10T00:28:31.727Z,9.80
2018-09-10T00:31:00.872Z,10.95
2018-09-10T00:33:29.846Z,11.20
2018-09-10T00:35:58.808Z,12.37
2018-09-10T00:38:27.721Z,11.95
2018-09-10T00:40:56.660Z,11.50
2018-09-10T00:43:25.573Z,11.57
2018-09-10T00:45:54.492Z,11.95
2018-09-10T00:48:23.395Z,12.55
2018-09-10T00:50:52.361Z,11.50
2018-09-10T00:53:21.299Z,12.07
2018-09-10T00:55:50.249Z,12.82
2018-09-10T00:58:19.214Z,13.08
2018-09-10T01:00:48.149Z,12.95
2018-09-10T01:03:17.128Z,12.43
2018-09-10T01:05:46.044Z,12.10
2018-09-10T01:08:15.006Z,12.50
2018-09-10T01:10:44.021Z,11.97
2018-09-10T01:13:13.045Z,13.70
2018-09-10T01:15:41.971Z,12.93
2018-09-10T01:18:11.007Z,12.55
2018-09-10T01:20:39.942Z,13.30
2018-09-10T01:23:08.896Z,11.85
2018-09-10T01:25:37.854Z,11.38
2018-09-10T01:28:06.859Z,11.20
2018-09-10T01:30:35.770Z,14.20
2018-09-10T01:33:04.868Z,14.18
2018-09-10T01:35:34.473Z,12.28
2018-09-10T01:38:03.402Z,12.80
2018-09-10T01:40:32.390Z,13.13
2018-09-10T01:43:01.313Z,12.45
2018-09-10T01:45:30.265Z,12.25
2018-09-10T01:47:59.156Z,11.78
2018-09-10T01:50:28.109Z,12.20
2018-09-10T01:52:57.022Z,11.65
2018-09-10T01:55:25.961Z,13.00
2018-09-10T01:57:54.872Z,11.93
2018-09-10T02:00:23.816Z,13.58
2018-09-10T02:02:52.754Z,13.40
2018-09-10T02:05:21.757Z,12.53
2018-09-10T02:07:50.793Z,13.80
2018-09-10T02:10:19.796Z,13.98
2018-09-10T02:12:48.781Z,11.80
2018-09-10T02:15:17.746Z,12.60
2018-09-10T02:17:46.716Z,13.95
2018-09-10T02:20:15.726Z,13.05
2018-09-10T02:22:44.696Z,13.53
2018-09-10T02:25:13.645Z,15.10
2018-09-10T02:27:42.595Z,16.30
2018-09-10T02:30:11.824Z,13.43
2018-09-10T02:32:40.766Z,14.87
2018-09-10T02:35:09.921Z,13.78
2018-09-10T02:37:38.912Z,12.37
2018-09-10T02:40:07.971Z,13.83
2018-09-10T02:42:36.965Z,12.40
2018-09-10T02:45:06.521Z,14.20
2018-09-10T02:47:35.462Z,13.05
2018-09-10T02:50:04.513Z,15.03
2018-09-10T02:52:33.432Z,14.15
2018-09-10T02:55:02.365Z,13.58
2018-09-10T02:57:31.347Z,15.45
2018-09-10T03:00:00.273Z,15.08
2018-09-10T03:02:29.270Z,14.63
2018-09-10T03:04:58.217Z,15.48
2018-09-10T03:07:27.151Z,15.03
2018-09-10T03:09:56.087Z,14.87
2018-09-10T03:12:25.028Z,15.83
2018-09-10T03:14:54.129Z,14.10
2018-09-10T03:17:23.100Z,14.95
2018-09-10T03:19:52.057Z,15.75
2018-09-10T03:22:20.977Z,15.93
2018-09-10T03:24:49.921Z,14.20
2018-09-10T03:27:19.016Z,14.63
2018-09-10T03:29:48.539Z,14.53
2018-09-10T03:32:17.595Z,15.55
2018-09-10T03:34:46.585Z,14.53
2018-09-10T03:37:15.519Z,15.35
2018-09-10T03:39:44.445Z,15.60
2018-09-10T03:42:13.348Z,14.68
2018-09-10T03:44:42.302Z,14.35
2018-09-10T03:47:11.293Z,13.68
2018-09-10T03:49:40.281Z,14.63
2018-09-10T03:52:09.203Z,14.78
2018-09-10T03:54:38.129Z,16.97
2018-09-10T03:57:07.101Z,15.30
2018-09-10T03:59:36.009Z,16.67
2018-09-10T04:02:04.973Z,17.40
2018-09-10T04:04:33.911Z,16.42
2018-09-10T04:07:02.965Z,17.05
2018-09-10T04:09:31.850Z,16.75
2018-09-10T04:12:00.795Z,17.17
2018-09-10T04:14:29.710Z,17.20
2018-09-10T04:16:58.660Z,16.90
2018-09-10T04:19:27.650Z,16.20
2018-09-10T04:21:56.691Z,15.18
2018-09-10T04:24:25.627Z,15.00
2018-09-10T04:26:54.535Z,16.10
2018-09-10T04:29:23.489Z,16.70
2018-09-10T04:31:52.480Z,17.32
2018-09-10T04:34:21.466Z,17.85
2018-09-10T04:36:50.472Z,17.73
2018-09-10T04:39:19.435Z,16.73
2018-09-10T04:41:48.607Z,17.60
2018-09-10T04:44:18.604Z,17.12
2018-09-10T04:46:47.856Z,15.90
2018-09-10T04:49:16.832Z,16.37
2018-09-10T04:51:45.756Z,16.52
2018-09-10T04:54:14.663Z,17.42
2018-09-10T04:56:43.915Z,16.02
2018-09-10T04:59:12.882Z,18.00
2018-09-10T05:01:42.789Z,16.50
2018-09-10T05:04:11.741Z,17.55
2018-09-10T05:06:40.759Z,15.30
2018-09-10T05:09:10.101Z,15.28
2018-09-10T05:11:39.051Z,15.32
2018-09-10T05:14:08.102Z,17.35
2018-09-10T05:16:37.077Z,15.78
2018-09-10T05:19:06.342Z,15.53
2018-09-10T05:21:35.317Z,14.07
2018-09-10T05:24:04.311Z,15.00
2018-09-10T05:26:33.243Z,13.83
2018-09-10T05:29:02.529Z,12.70
2018-09-10T05:31:31.423Z,11.80
2018-09-10T05:34:00.382Z,11.57
2018-09-10T05:36:29.305Z,13.05
2018-09-10T05:38:58.333Z,13.62
2018-09-10T05:41:27.339Z,13.05
2018-09-10T05:43:56.325Z,12.47
2018-09-10T05:46:25.270Z,12.53
2018-09-10T05:48:54.300Z,10.95
2018-09-10T05:51:23.235Z,12.25
2018-09-10T05:53:52.200Z,13.22
2018-09-10T05:56:21.206Z,11.95
2018-09-10T05:58:50.148Z,10.30
2018-09-10T06:01:19.340Z,10.08
2018-09-10T06:03:48.382Z,16.40
2018-09-10T06:06:17.473Z,14.78
2018-09-10T06:08:46.444Z,14.60
2018-09-10T06:11:15.428Z,9.97
2018-09-10T06:13:44.363Z,10.17
2018-09-10T06:16:13.324Z,10.33
2018-09-10T06:18:42.244Z,10.03
2018-09-10T06:21:11.229Z,9.50
2018-09-10T06:23:40.200Z,10.87
2018-09-10T06:26:09.314Z,10.30
2018-09-10T06:28:38.296Z,10.20
2018-09-10T06:31:07.249Z,9.47
2018-09-10T06:33:36.253Z,10.30
2018-09-10T06:36:05.170Z,11.53
2018-09-10T06:38:34.173Z,9.57
2018-09-10T06:41:03.093Z,9.00
2018-09-10T06:43:32.024Z,9.63
2018-09-10T06:46:00.979Z,10.07
2018-09-10T06:48:34.236Z,10.20
2018-09-10T06:51:04.551Z,10.23
2018-09-10T06:53:33.484Z,9.83
2018-09-10T06:56:03.498Z,9.63
2018-09-10T06:58:32.662Z,10.87
2018-09-10T07:01:01.868Z,10.60
2018-09-10T07:03:31.141Z,11.77
2018-09-10T07:06:00.099Z,12.37
2018-09-10T07:08:29.395Z,10.50
2018-09-10T07:10:58.629Z,9.17
2018-09-10T07:13:27.776Z,9.33
2018-09-10T07:15:57.012Z,8.00
2018-09-10T07:18:26.117Z,8.47
2018-09-10T07:20:55.310Z,8.87
2018-09-10T07:23:24.231Z,8.80
2018-09-10T07:25:53.135Z,11.00
2018-09-10T07:28:22.121Z,9.87
2018-09-10T07:30:51.095Z,9.73
2018-09-10T07:33:20.021Z,10.10
2018-09-10T07:35:49.143Z,9.17
2018-09-10T07:38:18.543Z,8.30
2018-09-10T07:40:47.797Z,8.27
2018-09-10T07:43:17.202Z,8.60
2018-09-10T07:45:46.273Z,7.93
2018-09-10T07:48:15.417Z,8.90
2018-09-10T07:50:44.689Z,8.80
2018-09-10T07:53:14.403Z,8.70
2018-09-10T07:55:43.292Z,7.27
2018-09-10T07:58:12.174Z,6.77
2018-09-10T08:00:41.138Z,6.60
2018-09-10T08:03:10.159Z,7.00
2018-09-10T08:05:39.113Z,5.97
2018-09-10T08:08:08.067Z,7.10
2018-09-10T08:10:37.120Z,7.57
2018-09-10T08:13:06.078Z,6.40
2018-09-10T08:15:35.012Z,7.00
2018-09-10T08:18:04.428Z,6.53
2018-09-10T08:20:33.636Z,7.50
2018-09-10T08:23:02.652Z,6.97
2018-09-10T08:25:31.632Z,6.57
2018-09-10T08:28:00.606Z,6.90
2018-09-10T08:30:29.616Z,6.87
2018-09-10T08:32:58.570Z,6.80
2018-09-10T08:35:27.684Z,7.53
2018-09-10T08:37:56.789Z,7.80
2018-09-10T08:40:25.815Z,6.40
2018-09-10T08:42:54.803Z,5.90
2018-09-10T08:45:23.751Z,6.83
2018-09-10T08:47:52.715Z,5.80
2018-09-10T08:50:21.723Z,7.20
2018-09-10T08:52:50.719Z,6.10
2018-09-10T08:55:19.710Z,6.83
2018-09-10T08:57:48.675Z,6.90
2018-09-10T09:00:17.684Z,6.00
2018-09-10T09:02:46.660Z,6.47
2018-09-10T09:05:15.615Z,6.90
2018-09-10T09:07:44.552Z,6.60
2018-09-10T09:10:13.509Z,5.30
2018-09-10T09:12:42.533Z,5.63
2018-09-10T09:15:11.508Z,4.90
2018-09-10T09:17:40.501Z,5.83
2018-09-10T09:20:09.758Z,4.47
2018-09-10T09:22:38.677Z,6.23
2018-09-10T09:25:07.708Z,5.30
2018-09-10T09:27:36.695Z,5.65
2018-09-10T09:30:06.452Z,5.40
2018-09-10T09:32:35.441Z,5.75
2018-09-10T09:35:04.398Z,4.85
2018-09-10T09:39:46.805Z,5.80
2018-09-10T09:42:20.846Z,5.30
2018-09-10T09:44:54.892Z,5.75
2018-09-10T09:47:23.915Z,4.58
2018-09-10T09:49:52.824Z,5.00
2018-09-10T09:52:21.829Z,4.70
2018-09-10T09:54:50.752Z,3.58
2018-09-10T09:57:19.733Z,4.15
2018-09-10T09:59:48.805Z,4.47
2018-09-10T10:02:20.780Z,3.92
2018-09-10T10:04:49.824Z,5.05
2018-09-10T10:07:19.018Z,4.58
2018-09-10T10:09:48.030Z,4.12
2018-09-10T10:12:16.995Z,4.50
2018-09-10T10:14:46.015Z,4.03
2018-09-10T10:17:14.924Z,3.77
2018-09-10T10:19:43.875Z,4.67
2018-09-10T10:22:12.914Z,4.03
2018-09-10T10:24:41.869Z,4.75
2018-09-10T10:27:10.826Z,3.92
2018-09-10T10:29:39.947Z,4.60
2018-09-10T10:32:08.943Z,3.12
2018-09-10T10:34:37.883Z,3.37
2018-09-10T10:37:06.844Z,3.17
2018-09-10T10:39:35.742Z,4.37
2018-09-10T10:42:04.717Z,4.22
2018-09-10T10:44:33.792Z,4.22
2018-09-10T10:47:02.741Z,3.40
2018-09-10T10:49:31.733Z,4.03
2018-09-10T10:52:00.737Z,3.83
2018-09-10T10:54:29.676Z,4.08
2018-09-10T10:56:58.601Z,3.98
2018-09-10T10:59:27.562Z,4.40
2018-09-10T11:01:56.727Z,3.70
2018-09-10T11:04:25.685Z,4.58
2018-09-10T11:06:54.679Z,3.72
2018-09-10T11:09:23.643Z,3.50
2018-09-10T11:11:52.676Z,4.30
2018-09-10T11:14:21.599Z,3.30
2018-09-10T11:16:50.577Z,3.05
2018-09-10T11:19:19.535Z,3.60
2018-09-10T11:21:48.469Z,3.15
2018-09-10T11:24:17.496Z,3.80
2018-09-10T11:26:46.470Z,3.80
2018-09-10T11:29:15.398Z,3.70
2018-09-10T11:31:44.356Z,3.35
2018-09-10T11:34:13.301Z,4.00
2018-09-10T11:36:42.250Z,3.98
2018-09-10T11:39:11.166Z,3.55
2018-09-10T11:41:43.615Z,3.70
2018-09-10T11:44:12.592Z,4.12
2018-09-10T11:46:41.565Z,4.05
2018-09-10T11:49:10.504Z,4.40
2018-09-10T11:51:39.400Z,4.20
2018-09-10T11:54:08.345Z,3.65
2018-09-10T11:56:37.249Z,3.02
2018-09-10T11:59:06.207Z,3.70
2018-09-10T12:01:35.171Z,3.47
2018-09-10T12:04:04.249Z,3.35
2018-09-10T12:06:33.175Z,3.70
2018-09-10T12:09:02.133Z,3.37
2018-09-10T12:11:31.054Z,3.30
2018-09-10T12:13:59.992Z,3.70
2018-09-10T12:16:28.935Z,3.02
2018-09-10T12:18:57.853Z,2.75
2018-09-10T12:21:26.821Z,2.42
2018-09-10T12:23:55.730Z,2.58
2018-09-10T12:26:24.718Z,2.30
2018-09-10T12:28:53.904Z,2.72
2018-09-10T12:31:22.830Z,3.00
2018-09-10T12:33:51.811Z,2.77
2018-09-10T12:36:20.773Z,2.65
2018-09-10T12:38:49.677Z,3.62
2018-09-10T12:41:18.725Z,2.27
2018-09-10T12:43:47.637Z,3.02
2018-09-10T12:46:16.616Z,2.67
2018-09-10T12:48:45.558Z,2.15
2018-09-10T12:51:14.467Z,3.20
2018-09-10T12:53:43.405Z,2.30
2018-09-10T12:56:12.380Z,2.60
2018-09-10T12:58:41.309Z,2.25
2018-09-10T13:01:10.229Z,2.60
2018-09-10T13:03:39.177Z,2.37
2018-09-10T13:06:08.113Z,2.10
2018-09-10T13:08:37.035Z,4.00
2018-09-10T13:11:05.967Z,3.75
2018-09-10T13:13:34.928Z,2.98
2018-09-10T13:16:03.905Z,2.77
2018-09-10T13:18:32.832Z,2.65
2018-09-10T13:21:01.824Z,2.30
2018-09-10T13:23:34.652Z,2.02
2018-09-10T13:26:08.577Z,2.80
2018-09-10T13:28:41.285Z,2.75
2018-09-10T13:31:14.361Z,3.77
2018-09-10T13:33:43.320Z,2.50
2018-09-10T13:36:12.480Z,2.22
2018-09-10T13:38:41.427Z,2.35
2018-09-10T13:41:10.377Z,3.25
2018-09-10T13:43:39.365Z,2.35
2018-09-10T13:46:08.398Z,3.35
2018-09-10T13:48:37.339Z,2.15
2018-09-10T13:51:06.329Z,2.72
2018-09-10T13:53:35.341Z,3.20
2018-09-10T13:56:04.277Z,2.35
2018-09-10T13:58:33.244Z,2.85
2018-09-10T14:01:02.164Z,2.10
2018-09-10T14:03:31.143Z,2.72
2018-09-10T14:06:00.069Z,2.35
2018-09-10T14:08:29.045Z,2.02
2018-09-10T14:10:57.979Z,2.37
2018-09-10T14:13:26.963Z,2.77
2018-09-10T14:15:55.916Z,2.10
2018-09-10T14:18:24.833Z,1.95
2018-09-10T14:20:53.854Z,2.55
2018-09-10T14:23:22.816Z,2.05
2018-09-10T14:25:51.917Z,2.47
2018-09-10T14:28:21.014Z,2.40
2018-09-10T14:30:50.036Z,2.10
2018-09-10T14:33:18.990Z,3.35
2018-09-10T14:35:47.970Z,2.33
2018-09-10T14:38:16.933Z,2.22
2018-09-10T14:40:45.942Z,2.55
2018-09-10T14:43:14.929Z,2.87
2018-09-10T14:45:43.974Z,3.02
2018-09-10T14:48:12.953Z,3.55
2018-09-10T14:50:41.885Z,2.50
2018-09-10T14:53:10.869Z,1.90
2018-09-10T14:55:39.876Z,3.17
2018-09-10T14:58:08.803Z,2.98
2018-09-10T15:00:37.809Z,3.55
2018-09-10T15:03:06.800Z,2.50
2018-09-10T15:05:35.728Z,2.90
2018-09-10T15:08:04.713Z,2.60
2018-09-10T15:10:33.615Z,2.87
2018-09-10T15:13:02.626Z,2.02
2018-09-10T15:15:31.563Z,2.35
2018-09-10T15:18:00.507Z,2.17
2018-09-10T15:20:29.516Z,2.90
2018-09-10T15:22:58.513Z,2.60
2018-09-10T15:25:27.467Z,1.80
2018-09-10T15:27:56.501Z,3.08
2018-09-10T15:30:25.455Z,1.60
2018-09-10T15:32:54.382Z,2.10
2018-09-10T15:35:23.343Z,2.50
2018-09-10T15:37:52.239Z,1.92
2018-09-10T15:40:21.186Z,1.98
2018-09-10T15:42:50.128Z,2.27
2018-09-10T15:45:19.215Z,2.87
2018-09-10T15:47:48.155Z,2.40
2018-09-10T15:50:17.169Z,3.15
2018-09-10T15:52:46.120Z,2.25
2018-09-10T15:55:15.030Z,2.75
2018-09-10T15:57:43.969Z,3.22
2018-09-10T16:00:12.966Z,2.75
2018-09-10T16:02:41.889Z,2.40
2018-09-10T16:05:10.793Z,2.47
2018-09-10T16:07:39.726Z,2.50
2018-09-10T16:10:08.652Z,2.62
2018-09-10T16:12:37.610Z,3.00
2018-09-10T16:15:07.141Z,3.37
2018-09-10T16:17:36.088Z,3.33
2018-09-10T16:20:05.189Z,3.37
2018-09-10T16:22:34.108Z,2.47
2018-09-10T16:25:03.062Z,2.50
2018-09-10T16:27:32.396Z,2.22
2018-09-10T16:30:01.349Z,2.33
2018-09-10T16:32:30.380Z,2.80
2018-09-10T16:34:59.336Z,2.25
2018-09-10T16:37:29.065Z,2.90
2018-09-10T16:39:58.018Z,2.92
2018-09-10T16:42:26.957Z,2.60
2018-09-10T16:44:55.875Z,2.83
2018-09-10T16:47:24.814Z,2.45
2018-09-10T16:49:53.838Z,3.55
2018-09-10T16:52:22.816Z,3.40
2018-09-10T16:54:51.910Z,4.83
2018-09-10T16:57:20.873Z,5.75
2018-09-10T16:59:49.768Z,5.50
2018-09-10T17:02:18.765Z,4.83
2018-09-10T17:04:47.713Z,5.37
2018-09-10T17:07:16.692Z,3.80
2018-09-10T17:09:45.593Z,6.03
2018-09-10T17:12:14.535Z,5.28
2018-09-10T17:14:43.578Z,6.47
2018-09-10T17:17:12.517Z,5.55
2018-09-10T17:19:41.510Z,5.95
2018-09-10T17:22:10.444Z,4.30
2018-09-10T17:24:39.357Z,3.65
2018-09-10T17:27:08.322Z,6.47
2018-09-10T17:29:37.253Z,5.75
2018-09-10T17:32:06.188Z,6.55
2018-09-10T17:34:35.123Z,7.17
2018-09-10T17:37:04.061Z,8.35
2018-09-10T17:39:32.996Z,7.78
2018-09-10T17:42:01.913Z,7.75
2018-09-10T17:44:30.873Z,6.80
2018-09-10T17:46:59.830Z,7.28
2018-09-10T17:49:28.870Z,6.62
2018-09-10T17:51:57.792Z,5.30
2018-09-10T17:54:26.745Z,6.35
2018-09-10T17:56:55.718Z,7.67
2018-09-10T17:59:24.621Z,7.40
2018-09-10T18:01:53.560Z,7.65
2018-09-10T18:04:22.496Z,9.60
2018-09-10T18:06:51.455Z,6.87
2018-09-10T18:09:20.364Z,8.13
2018-09-10T18:11:49.301Z,7.75
2018-09-10T18:14:18.281Z,7.33
2018-09-10T18:16:47.232Z,6.90
2018-09-10T18:19:16.192Z,5.62
2018-09-10T18:21:45.149Z,5.47
2018-09-10T18:24:14.257Z,5.47
2018-09-10T18:26:43.225Z,5.40
2018-09-10T18:29:12.197Z,6.42
2018-09-10T18:31:41.141Z,5.12
2018-09-10T18:34:10.386Z,5.35
2018-09-10T18:36:39.331Z,5.55
2018-09-10T18:39:09.976Z,5.58
2018-09-10T18:41:38.889Z,6.53
2018-09-10T18:44:08.170Z,7.00
2018-09-10T18:46:37.096Z,6.62
2018-09-10T18:49:06.361Z,5.25
2018-09-10T18:51:35.369Z,4.90
2018-09-10T18:54:04.485Z,7.35
2018-09-10T18:56:33.453Z,7.28
2018-09-10T18:59:02.413Z,5.92
2018-09-10T19:01:31.456Z,6.03
2018-09-10T19:04:00.420Z,5.42
2018-09-10T19:06:29.397Z,5.47
2018-09-10T19:08:58.373Z,5.80
2018-09-10T19:11:27.408Z,5.67
2018-09-10T19:13:56.345Z,5.78
2018-09-10T19:16:25.291Z,5.45
2018-09-10T19:18:54.211Z,5.50
2018-09-10T19:21:23.124Z,6.03
2018-09-10T19:23:52.105Z,6.03
2018-09-10T19:26:22.164Z,6.30
2018-09-10T19:28:51.134Z,8.93
2018-09-10T19:31:20.028Z,6.90
2018-09-10T19:33:49.022Z,7.15
2018-09-10T19:36:18.106Z,6.45
2018-09-10T19:38:47.079Z,7.20
2018-09-10T19:41:16.005Z,7.08
2018-09-10T19:43:46.045Z,6.92
2018-09-10T19:46:15.200Z,6.58
2018-09-10T19:48:44.186Z,6.85
2018-09-10T19:51:13.138Z,6.70
2018-09-10T19:53:42.045Z,6.45
2018-09-10T19:56:10.998Z,6.28
2018-09-10T19:58:39.984Z,6.45
2018-09-10T20:01:08.992Z,6.00
2018-09-10T20:03:37.924Z,5.72
2018-09-10T20:06:06.877Z,6.20
2018-09-10T20:08:35.788Z,7.60
2018-09-10T20:11:04.996Z,7.05
2018-09-10T20:13:33.937Z,6.83
2018-09-10T20:16:02.973Z,8.45
2018-09-10T20:18:31.928Z,7.55
2018-09-10T20:21:00.855Z,8.23
2018-09-10T20:23:54.331Z,7.83
2018-09-10T20:26:35.486Z,8.53
2018-09-10T20:29:20.877Z,7.17
2018-09-10T20:32:03.427Z,7.53
2018-09-10T20:34:32.340Z,7.97
2018-09-10T20:37:02.114Z,8.00
2018-09-10T20:39:31.132Z,8.65
2018-09-10T20:42:00.031Z,7.37
2018-09-10T20:44:28.976Z,8.55
2018-09-10T20:46:57.921Z,6.37
2018-09-10T20:49:27.838Z,7.30
2018-09-10T20:51:56.739Z,8.85
2018-09-10T20:54:25.710Z,8.18
2018-09-10T20:56:55.078Z,9.00
2018-09-10T20:59:24.273Z,8.05
2018-09-10T21:01:53.261Z,7.78
2018-09-10T21:04:22.210Z,8.35
2018-09-10T21:06:51.672Z,8.38
2018-09-10T21:09:21.061Z,9.53
2018-09-10T21:11:50.024Z,8.03
2018-09-10T21:14:19.563Z,8.08
2018-09-10T21:16:48.504Z,8.83
2018-09-10T21:19:17.687Z,8.25
2018-09-10T21:21:47.198Z,8.05
2018-09-10T21:24:17.453Z,8.00
2018-09-10T21:26:46.458Z,8.85
2018-09-10T21:29:15.393Z,7.95
2018-09-10T21:31:44.296Z,7.90
2018-09-10T21:34:13.310Z,7.97
2018-09-10T21:36:42.722Z,9.08
2018-09-10T21:39:11.751Z,8.38
2018-09-10T21:41:40.746Z,8.10
2018-09-10T21:44:10.335Z,8.35
2018-09-10T21:46:39.329Z,7.97
2018-09-10T21:49:08.557Z,7.55
2018-09-10T21:51:37.472Z,9.40
2018-09-10T21:54:06.443Z,8.03
2018-09-10T21:56:35.351Z,7.05
2018-09-10T21:59:04.350Z,8.13
2018-09-10T22:01:33.272Z,7.15
2018-09-10T22:04:02.170Z,6.85
2018-09-10T22:06:31.103Z,8.78
2018-09-10T22:08:59.986Z,10.32
2018-09-10T22:11:28.968Z,9.55
2018-09-10T22:13:57.984Z,10.00
2018-09-10T22:16:26.973Z,8.05
2018-09-10T22:18:55.850Z,8.45
2018-09-10T22:21:24.757Z,7.10
2018-09-10T22:23:53.645Z,7.45
2018-09-10T22:26:22.644Z,6.62
2018-09-10T22:28:51.526Z,7.72
2018-09-10T22:31:20.452Z,7.58
2018-09-10T22:33:49.384Z,6.30
2018-09-10T22:36:18.324Z,7.10
2018-09-10T22:38:47.256Z,7.08
2018-09-10T22:41:16.222Z,5.75
2018-09-10T22:43:45.276Z,6.20
2018-09-10T22:46:14.162Z,6.05
2018-09-10T22:48:43.097Z,5.95
2018-09-10T22:51:11.997Z,5.70
2018-09-10T22:53:40.892Z,6.55
2018-09-10T22:56:09.879Z,6.45
2018-09-10T22:58:38.839Z,7.40
2018-09-10T23:01:07.758Z,7.62
2018-09-10T23:03:36.624Z,6.35
2018-09-10T23:06:05.580Z,6.22
2018-09-10T23:08:34.531Z,6.05
2018-09-10T23:11:03.476Z,6.22
2018-09-10T23:13:32.426Z,6.08
2018-09-10T23:16:01.331Z,6.95
2018-09-10T23:18:30.252Z,8.18
2018-09-10T23:20:59.204Z,7.37
2018-09-10T23:23:28.105Z,7.50
2018-09-10T23:25:57.015Z,6.08
2018-09-10T23:28:26.048Z,6.83
2018-09-10T23:30:55.007Z,6.05
2018-09-10T23:33:23.940Z,6.90
2018-09-10T23:35:52.847Z,6.42
2018-09-10T23:38:21.751Z,6.45
2018-09-10T23:40:50.679Z,6.30
2018-09-10T23:43:19.609Z,6.22
2018-09-10T23:45:48.508Z,5.83
2018-09-10T23:48:17.504Z,6.28
2018-09-10T23:50:46.424Z,6.83
2018-09-10T23:53:15.374Z,5.83
2018-09-10T23:55:44.328Z,5.92
2018-09-10T23:58:13.232Z,6.70
